createdAt,value
2018-09-09T00:00:55.855Z,15.00
2018-09-09T00:03:24.371Z,15.00
2018-09-09T00:05:52.913Z,15.10
2018-09-09T00:08:21.445Z,15.10
2018-09-09T00:10:50.060Z,15.00
2018-09-09T00:13:18.651Z,15.10
2018-09-09T00:15:47.203Z,15.00
2018-09-09T00:18:15.716Z,14.90
2018-09-09T00:20:44.263Z,14.90
2018-09-09T00:23:12.864Z,14.90
2018-09-09T00:25:41.406Z,14.80
2018-09-09T00:28:09.987Z,14.70
2018-09-09T00:30:38.606Z,14.70
2018-09-09T00:33:07.240Z,14.60
2018-09-09T00:35:35.861Z,14.70
2018-09-09T00:38:04.452Z,14.70
2018-09-09T00:40:33.026Z,14.60
2018-09-09T00:43:01.570Z,14.60
2018-09-09T00:45:30.101Z,14.60
2018-09-09T00:47:58.784Z,14.70
2018-09-09T00:50:32.508Z,14.70
2018-09-09T00:53:06.144Z,14.70
2018-09-09T00:55:34.751Z,14.70
2018-09-09T00:58:03.273Z,14.70
2018-09-09T01:00:37.148Z,14.70
2018-09-09T01:03:05.887Z,14.70
2018-09-09T01:05:35.164Z,14.70
2018-09-09T01:08:03.766Z,14.70
2018-09-09T01:10:32.320Z,14.60
2018-09-09T01:13:00.916Z,14.60
2018-09-09T01:15:29.500Z,14.60
2018-09-09T01:17:58.073Z,14.60
2018-09-09T01:20:26.627Z,14.50
2018-09-09T01:22:55.174Z,14.40
2018-09-09T01:25:23.734Z,14.30
2018-09-09T01:27:52.293Z,14.40
2018-09-09T01:30:21.534Z,14.30
2018-09-09T01:32:50.061Z,14.40
2018-09-09T01:35:18.607Z,14.50
2018-09-09T01:37:47.145Z,14.50
2018-09-09T01:40:15.702Z,14.40
2018-09-09T01:42:44.773Z,14.40
2018-09-09T01:45:13.325Z,14.40
2018-09-09T01:47:41.921Z,14.30
2018-09-09T01:50:10.563Z,14.30
2018-09-09T01:52:39.129Z,14.30
2018-09-09T01:55:07.783Z,14.30
2018-09-09T01:57:36.303Z,14.30
2018-09-09T02:00:04.949Z,14.30
2018-09-09T02:02:33.565Z,14.20
2018-09-09T02:05:02.120Z,14.20
2018-09-09T02:07:30.637Z,14.20
2018-09-09T02:09:59.225Z,14.10
2018-09-09T02:12:27.755Z,14.10
2018-09-09T02:14:56.319Z,14.20
2018-09-09T02:17:24.911Z,14.20
2018-09-09T02:19:53.446Z,14.10
2018-09-09T02:22:21.968Z,14.10
2018-09-09T02:24:50.548Z,14.10
2018-09-09T02:27:19.051Z,14.20
2018-09-09T02:29:47.575Z,14.10
2018-09-09T02:32:16.117Z,14.00
2018-09-09T02:34:44.710Z,14.10
2018-09-09T02:37:13.406Z,14.00
2018-09-09T02:39:42.115Z,14.00
2018-09-09T02:42:10.695Z,14.00
2018-09-09T02:44:39.288Z,14.00
2018-09-09T02:47:08.109Z,14.00
2018-09-09T02:49:36.642Z,14.00
2018-09-09T02:52:05.173Z,14.00
2018-09-09T02:54:33.739Z,14.00
2018-09-09T02:57:02.289Z,13.90
2018-09-09T02:59:30.842Z,13.90
2018-09-09T03:01:59.450Z,13.80
2018-09-09T03:04:28.001Z,13.80
2018-09-09T03:06:57.317Z,13.70
2018-09-09T03:09:25.866Z,13.80
2018-09-09T03:11:54.388Z,13.80
2018-09-09T03:14:22.941Z,13.80
2018-09-09T03:16:51.506Z,13.80
2018-09-09T03:19:20.087Z,13.70
2018-09-09T03:21:48.660Z,13.70
2018-09-09T03:24:17.263Z,13.70
2018-09-09T03:26:45.779Z,13.70
2018-09-09T03:29:14.303Z,13.70
2018-09-09T03:31:42.869Z,13.70
2018-09-09T03:34:11.369Z,13.70
2018-09-09T03:36:39.895Z,13.80
2018-09-09T03:39:09.483Z,13.80
2018-09-09T03:41:38.230Z,13.80
2018-09-09T03:44:06.791Z,13.80
2018-09-09T03:46:35.497Z,13.70
2018-09-09T03:49:04.211Z,13.80
2018-09-09T03:51:32.749Z,13.80
2018-09-09T03:54:01.295Z,13.70
2018-09-09T03:56:29.954Z,13.70
2018-09-09T03:58:58.552Z,13.70
2018-09-09T04:01:27.166Z,13.70
2018-09-09T04:03:55.688Z,13.60
2018-09-09T04:06:24.630Z,13.60
2018-09-09T04:08:53.252Z,13.60
2018-09-09T04:11:21.839Z,13.60
2018-09-09T04:13:50.485Z,13.60
2018-09-09T04:16:19.018Z,13.50
2018-09-09T04:18:47.568Z,13.50
2018-09-09T04:21:16.066Z,13.40
2018-09-09T04:23:44.600Z,13.40
2018-09-09T04:26:13.118Z,13.40
2018-09-09T04:28:41.656Z,13.50
2018-09-09T04:31:10.880Z,13.50
2018-09-09T04:33:39.493Z,13.50
2018-09-09T04:36:08.591Z,13.50
2018-09-09T04:38:37.118Z,13.40
2018-09-09T04:41:05.719Z,13.50
2018-09-09T04:43:34.235Z,13.40
2018-09-09T04:46:02.779Z,13.40
2018-09-09T04:48:31.368Z,13.40
2018-09-09T04:50:59.942Z,13.50
2018-09-09T04:53:28.499Z,13.50
2018-09-09T04:55:57.041Z,13.50
2018-09-09T04:58:25.616Z,13.40
2018-09-09T05:00:54.603Z,13.30
2018-09-09T05:03:23.803Z,13.30
2018-09-09T05:05:52.363Z,13.30
2018-09-09T05:08:20.945Z,13.30
2018-09-09T05:10:49.546Z,13.30
2018-09-09T05:13:18.076Z,13.30
2018-09-09T05:15:46.638Z,13.30
2018-09-09T05:18:16.093Z,13.30
2018-09-09T05:20:44.634Z,13.30
2018-09-09T05:23:13.170Z,13.30
2018-09-09T05:25:41.772Z,13.30
2018-09-09T05:28:10.301Z,13.20
2018-09-09T05:30:39.751Z,13.30
2018-09-09T05:33:08.312Z,13.30
2018-09-09T05:35:36.827Z,13.30
2018-09-09T05:38:05.559Z,13.30
2018-09-09T05:40:34.158Z,13.40
2018-09-09T05:43:02.795Z,13.40
2018-09-09T05:45:31.472Z,13.40
2018-09-09T05:47:59.978Z,13.40
2018-09-09T05:50:28.566Z,13.30
2018-09-09T05:52:57.096Z,13.30
2018-09-09T05:55:25.629Z,13.40
2018-09-09T05:57:54.223Z,13.40
2018-09-09T06:00:23.085Z,13.40
2018-09-09T06:02:51.982Z,13.50
2018-09-09T06:05:20.575Z,13.70
2018-09-09T06:07:49.136Z,13.90
2018-09-09T06:10:17.641Z,14.10
2018-09-09T06:12:46.289Z,14.40
2018-09-09T06:15:14.991Z,14.60
2018-09-09T06:17:44.844Z,15.00
2018-09-09T06:20:13.395Z,15.20
2018-09-09T06:22:41.989Z,15.40
2018-09-09T06:25:10.557Z,15.60
2018-09-09T06:27:39.175Z,15.80
2018-09-09T06:30:07.763Z,15.90
2018-09-09T06:32:36.296Z,16.00
2018-09-09T06:35:04.913Z,16.10
2018-09-09T06:37:33.503Z,16.10
2018-09-09T06:40:02.115Z,16.20
2018-09-09T06:42:30.822Z,16.30
2018-09-09T06:44:59.390Z,16.50
2018-09-09T06:47:27.935Z,16.60
2018-09-09T06:49:56.565Z,16.70
2018-09-09T06:52:25.085Z,16.90
2018-09-09T06:54:53.612Z,17.00
2018-09-09T06:57:22.145Z,17.20
2018-09-09T06:59:50.661Z,17.30
2018-09-09T07:02:19.259Z,17.40
2018-09-09T07:04:49.338Z,17.50
2018-09-09T07:07:17.884Z,17.60
2018-09-09T07:09:46.475Z,17.70
2018-09-09T07:12:15.026Z,17.80
2018-09-09T07:14:43.597Z,17.90
2018-09-09T07:17:12.201Z,18.00
2018-09-09T07:19:40.711Z,18.20
2018-09-09T07:22:09.312Z,18.30
2018-09-09T07:24:37.873Z,18.50
2018-09-09T07:27:06.494Z,18.70
2018-09-09T07:29:35.068Z,18.90
2018-09-09T07:32:03.592Z,19.00
2018-09-09T07:34:32.146Z,19.10
2018-09-09T07:37:00.706Z,19.10
2018-09-09T07:39:29.212Z,19.20
2018-09-09T07:41:57.726Z,19.40
2018-09-09T07:44:26.321Z,19.50
2018-09-09T07:46:54.869Z,19.60
2018-09-09T07:49:23.559Z,19.70
2018-09-09T07:51:52.133Z,19.90
2018-09-09T07:54:20.711Z,20.00
2018-09-09T07:56:49.293Z,20.00
2018-09-09T07:59:17.867Z,20.00
2018-09-09T08:01:46.449Z,20.10
2018-09-09T08:04:15.047Z,20.10
2018-09-09T08:06:43.645Z,20.20
2018-09-09T08:09:12.373Z,20.30
2018-09-09T08:11:40.987Z,20.30
2018-09-09T08:14:10.477Z,20.40
2018-09-09T08:16:39.027Z,20.40
2018-09-09T08:19:07.705Z,20.50
2018-09-09T08:21:36.283Z,20.60
2018-09-09T08:24:04.991Z,20.70
2018-09-09T08:26:33.571Z,20.70
2018-09-09T08:29:02.147Z,20.80
2018-09-09T08:31:30.686Z,20.80
2018-09-09T08:33:59.237Z,20.90
2018-09-09T08:36:27.873Z,21.00
2018-09-09T08:38:56.444Z,21.10
2018-09-09T08:41:25.007Z,21.10
2018-09-09T08:43:53.588Z,21.10
2018-09-09T08:46:22.180Z,21.00
2018-09-09T08:48:50.808Z,21.10
2018-09-09T08:51:19.344Z,21.20
2018-09-09T08:53:47.870Z,21.40
2018-09-09T08:56:16.424Z,21.70
2018-09-09T08:58:44.992Z,21.80
2018-09-09T09:01:13.637Z,22.00
2018-09-09T09:03:42.217Z,22.00
2018-09-09T09:06:10.797Z,22.10
2018-09-09T09:08:39.332Z,22.20
2018-09-09T09:11:07.936Z,21.90
2018-09-09T09:13:36.509Z,21.70
2018-09-09T09:16:05.083Z,21.90
2018-09-09T09:18:33.845Z,22.00
2018-09-09T09:21:02.379Z,22.10
2018-09-09T09:23:30.940Z,22.10
2018-09-09T09:25:59.466Z,22.10
2018-09-09T09:28:28.003Z,22.20
2018-09-09T09:30:56.585Z,22.20
2018-09-09T09:33:25.167Z,22.20
2018-09-09T09:35:54.605Z,22.20
2018-09-09T09:38:23.615Z,22.00
2018-09-09T09:40:52.823Z,22.00
2018-09-09T09:43:21.371Z,22.00
2018-09-09T09:45:49.988Z,22.00
2018-09-09T09:48:18.842Z,22.00
2018-09-09T09:50:47.403Z,22.10
2018-09-09T09:53:15.995Z,22.20
2018-09-09T09:55:44.519Z,22.30
2018-09-09T09:58:13.372Z,22.40
2018-09-09T10:00:47.334Z,22.30
2018-09-09T10:03:15.949Z,22.40
2018-09-09T10:05:44.500Z,22.30
2018-09-09T10:08:13.038Z,22.10
2018-09-09T10:10:41.660Z,22.20
2018-09-09T10:13:10.236Z,22.10
2018-09-09T10:15:38.786Z,22.30
2018-09-09T10:18:07.408Z,22.40
2018-09-09T10:20:35.984Z,22.70
2018-09-09T10:23:04.609Z,22.90
2018-09-09T10:25:33.215Z,23.10
2018-09-09T10:28:01.752Z,23.20
2018-09-09T10:30:30.344Z,23.20
2018-09-09T10:32:58.937Z,23.30
2018-09-09T10:35:27.495Z,23.10
2018-09-09T10:37:56.032Z,23.20
2018-09-09T10:40:24.703Z,23.30
2018-09-09T10:42:53.273Z,23.30
2018-09-09T10:45:21.808Z,23.50
2018-09-09T10:47:50.376Z,23.60
2018-09-09T10:50:18.926Z,23.60
2018-09-09T10:52:47.456Z,23.60
2018-09-09T10:55:16.062Z,23.80
2018-09-09T10:57:44.625Z,23.80
2018-09-09T11:00:13.397Z,23.80
2018-09-09T11:02:42.011Z,23.80
2018-09-09T11:05:10.624Z,23.90
2018-09-09T11:07:39.200Z,23.90
2018-09-09T11:10:07.824Z,23.90
2018-09-09T11:12:36.490Z,24.00
2018-09-09T11:15:05.125Z,24.00
2018-09-09T11:17:33.667Z,24.20
2018-09-09T11:20:02.243Z,24.20
2018-09-09T11:22:30.789Z,24.30
2018-09-09T11:25:00.539Z,24.30
2018-09-09T11:27:29.078Z,24.30
2018-09-09T11:29:57.680Z,24.30
2018-09-09T11:32:26.208Z,24.30
2018-09-09T11:34:54.832Z,24.30
2018-09-09T11:37:23.422Z,24.40
2018-09-09T11:39:52.049Z,24.40
2018-09-09T11:42:20.625Z,24.40
2018-09-09T11:44:49.193Z,24.60
2018-09-09T11:47:18.510Z,24.60
2018-09-09T11:49:47.122Z,24.60
2018-09-09T11:52:15.791Z,24.60
2018-09-09T11:54:44.397Z,24.60
2018-09-09T11:57:13.037Z,24.70
2018-09-09T11:59:41.608Z,24.80
2018-09-09T12:02:10.293Z,24.90
2018-09-09T12:04:38.872Z,24.90
2018-09-09T12:07:07.471Z,24.80
2018-09-09T12:09:36.125Z,24.90
2018-09-09T12:12:05.004Z,24.80
2018-09-09T12:14:33.755Z,24.80
2018-09-09T12:17:02.451Z,24.90
2018-09-09T12:19:31.570Z,25.20
2018-09-09T12:22:01.530Z,25.50
2018-09-09T12:24:30.443Z,25.40
2018-09-09T12:26:59.166Z,25.60
2018-09-09T12:29:27.993Z,25.60
2018-09-09T12:31:56.591Z,25.80
2018-09-09T12:34:25.162Z,26.00
2018-09-09T12:36:53.773Z,26.20
2018-09-09T12:39:22.393Z,26.40
2018-09-09T12:41:50.938Z,26.50
2018-09-09T12:44:24.835Z,26.50
2018-09-09T12:46:58.664Z,26.50
2018-09-09T12:49:27.269Z,26.50
2018-09-09T12:51:55.873Z,26.50
2018-09-09T12:54:24.584Z,26.40
2018-09-09T12:56:53.194Z,26.50
2018-09-09T12:59:21.888Z,26.60
2018-09-09T13:01:50.508Z,26.70
2018-09-09T13:04:19.067Z,26.80
2018-09-09T13:06:47.767Z,27.00
2018-09-09T13:09:16.369Z,26.90
2018-09-09T13:11:45.009Z,26.90
2018-09-09T13:14:13.568Z,26.70
2018-09-09T13:16:42.114Z,26.80
2018-09-09T13:19:10.717Z,26.80
2018-09-09T13:21:39.372Z,26.70
2018-09-09T13:24:08.045Z,26.80
2018-09-09T13:26:36.679Z,27.00
2018-09-09T13:29:05.425Z,27.10
2018-09-09T13:31:34.005Z,27.30
2018-09-09T13:34:03.596Z,27.30
2018-09-09T13:36:32.222Z,27.40
2018-09-09T13:39:00.764Z,27.40
2018-09-09T13:41:29.400Z,27.30
2018-09-09T13:43:58.076Z,27.20
2018-09-09T13:46:26.661Z,27.20
2018-09-09T13:48:55.286Z,27.20
2018-09-09T13:51:23.862Z,27.10
2018-09-09T13:53:52.683Z,27.10
2018-09-09T13:56:21.279Z,27.10
2018-09-09T13:58:49.853Z,27.20
2018-09-09T14:01:18.456Z,27.20
2018-09-09T14:03:47.062Z,27.10
2018-09-09T14:06:15.751Z,27.20
2018-09-09T14:08:44.351Z,27.20
2018-09-09T14:11:12.997Z,27.30
2018-09-09T14:13:41.601Z,27.40
2018-09-09T14:16:10.124Z,27.50
2018-09-09T14:18:38.833Z,27.70
2018-09-09T14:21:07.608Z,27.90
2018-09-09T14:23:36.232Z,28.10
2018-09-09T14:26:04.830Z,28.40
2018-09-09T14:28:33.402Z,28.60
2018-09-09T14:31:02.031Z,28.80
2018-09-09T14:33:30.621Z,29.10
2018-09-09T14:35:59.319Z,29.50
2018-09-09T14:38:27.989Z,29.60
2018-09-09T14:40:56.548Z,29.70
2018-09-09T14:43:25.124Z,29.70
2018-09-09T14:45:55.017Z,29.70
2018-09-09T14:48:23.534Z,29.80
2018-09-09T14:50:52.230Z,29.90
2018-09-09T14:53:20.882Z,29.80
2018-09-09T14:55:49.442Z,29.60
2018-09-09T14:58:18.025Z,29.60
2018-09-09T15:00:46.681Z,29.60
2018-09-09T15:03:15.286Z,29.60
2018-09-09T15:05:43.960Z,29.50
2018-09-09T15:08:12.593Z,29.70
2018-09-09T15:10:41.173Z,29.80
2018-09-09T15:13:09.723Z,29.70
2018-09-09T15:15:38.285Z,29.50
2018-09-09T15:18:06.934Z,29.50
2018-09-09T15:20:35.583Z,29.70
2018-09-09T15:23:04.179Z,29.90
2018-09-09T15:25:32.705Z,29.90
2018-09-09T15:28:01.339Z,29.90
2018-09-09T15:30:30.075Z,29.70
2018-09-09T15:32:58.656Z,29.50
2018-09-09T15:35:27.273Z,29.00
2018-09-09T15:37:55.830Z,28.30
2018-09-09T15:40:24.430Z,27.70
2018-09-09T15:42:53.098Z,27.10
2018-09-09T15:45:21.738Z,26.90
2018-09-09T15:47:50.341Z,26.70
2018-09-09T15:50:18.921Z,26.50
2018-09-09T15:52:47.509Z,26.30
2018-09-09T15:55:16.109Z,26.00
2018-09-09T15:57:44.733Z,25.70
2018-09-09T16:00:13.364Z,25.30
2018-09-09T16:02:41.944Z,25.00
2018-09-09T16:05:10.542Z,24.80
2018-09-09T16:07:39.111Z,24.70
2018-09-09T16:10:07.752Z,24.60
2018-09-09T16:12:36.330Z,24.50
2018-09-09T16:15:05.042Z,24.40
2018-09-09T16:17:33.651Z,24.30
2018-09-09T16:20:02.321Z,24.20
2018-09-09T16:22:30.917Z,24.10
2018-09-09T16:24:59.485Z,24.00
2018-09-09T16:27:28.080Z,24.00
2018-09-09T16:29:56.702Z,23.90
2018-09-09T16:32:25.279Z,23.80
2018-09-09T16:34:53.819Z,23.80
2018-09-09T16:37:22.398Z,23.80
2018-09-09T16:39:51.031Z,23.70
2018-09-09T16:42:19.630Z,23.60
2018-09-09T16:44:48.202Z,23.40
2018-09-09T16:47:16.742Z,23.20
2018-09-09T16:49:45.275Z,23.00
2018-09-09T16:52:13.864Z,22.90
2018-09-09T16:54:42.662Z,22.80
2018-09-09T16:57:11.221Z,22.70
2018-09-09T16:59:39.810Z,22.60
2018-09-09T17:02:08.436Z,22.50
2018-09-09T17:04:37.038Z,22.40
2018-09-09T17:07:05.704Z,22.30
2018-09-09T17:09:34.311Z,22.20
2018-09-09T17:12:02.914Z,22.10
2018-09-09T17:14:31.740Z,22.00
2018-09-09T17:17:00.454Z,21.90
2018-09-09T17:19:29.031Z,21.90
2018-09-09T17:21:57.570Z,21.80
2018-09-09T17:24:26.126Z,21.80
2018-09-09T17:26:54.666Z,21.70
2018-09-09T17:29:23.486Z,21.70
2018-09-09T17:31:52.112Z,21.70
2018-09-09T17:34:20.715Z,21.80
2018-09-09T17:36:49.331Z,21.80
2018-09-09T17:39:17.843Z,21.70
2018-09-09T17:41:46.408Z,21.60
2018-09-09T17:44:14.952Z,21.50
2018-09-09T17:46:43.504Z,21.40
2018-09-09T17:49:12.142Z,21.30
2018-09-09T17:51:40.704Z,21.30
2018-09-09T17:54:09.306Z,21.30
2018-09-09T17:56:37.871Z,21.30
2018-09-09T17:59:06.432Z,21.20
2018-09-09T18:01:34.982Z,21.10
2018-09-09T18:04:03.550Z,20.90
2018-09-09T18:06:32.149Z,20.90
2018-09-09T18:09:00.710Z,20.80
2018-09-09T18:11:29.308Z,20.70
2018-09-09T18:13:57.910Z,20.70
2018-09-09T18:16:26.494Z,20.70
2018-09-09T18:18:55.110Z,20.50
2018-09-09T18:21:23.704Z,20.50
2018-09-09T18:23:52.335Z,20.50
2018-09-09T18:26:20.943Z,20.50
2018-09-09T18:28:49.559Z,20.40
2018-09-09T18:31:18.172Z,20.30
2018-09-09T18:33:46.786Z,20.30
2018-09-09T18:36:15.368Z,20.20
2018-09-09T18:38:44.103Z,20.20
2018-09-09T18:41:12.770Z,20.10
2018-09-09T18:43:41.386Z,20.00
2018-09-09T18:46:09.965Z,20.00
2018-09-09T18:48:38.904Z,20.00
2018-09-09T18:51:07.531Z,20.00
2018-09-09T18:53:36.152Z,19.90
2018-09-09T18:56:04.731Z,19.80
2018-09-09T18:58:33.298Z,19.70
2018-09-09T19:01:01.918Z,19.70
2018-09-09T19:03:30.491Z,19.80
2018-09-09T19:05:59.022Z,19.80
2018-09-09T19:08:27.624Z,19.90
2018-09-09T19:10:56.216Z,19.90
2018-09-09T19:13:24.833Z,19.90
2018-09-09T19:15:53.458Z,20.00
2018-09-09T19:18:22.081Z,20.00
2018-09-09T19:20:51.086Z,20.00
2018-09-09T19:23:19.709Z,20.00
2018-09-09T19:25:48.345Z,20.00
2018-09-09T19:28:17.029Z,19.90
2018-09-09T19:30:45.598Z,19.90
2018-09-09T19:33:14.213Z,19.90
2018-09-09T19:35:42.820Z,19.80
2018-09-09T19:38:11.509Z,19.80
2018-09-09T19:40:40.140Z,19.90
2018-09-09T19:43:08.749Z,19.90
2018-09-09T19:45:37.367Z,19.90
2018-09-09T19:48:05.937Z,19.90
2018-09-09T19:50:34.584Z,19.80
2018-09-09T19:53:03.219Z,19.80
2018-09-09T19:55:31.893Z,19.80
2018-09-09T19:58:00.560Z,19.70
2018-09-09T20:00:29.136Z,19.60
2018-09-09T20:02:57.726Z,19.60
2018-09-09T20:05:26.348Z,19.50
2018-09-09T20:07:54.937Z,19.40
2018-09-09T20:10:23.520Z,19.30
2018-09-09T20:12:52.137Z,19.30
2018-09-09T20:15:20.746Z,19.20
2018-09-09T20:17:49.282Z,19.20
2018-09-09T20:20:17.894Z,19.30
2018-09-09T20:22:49.646Z,19.40
2018-09-09T20:25:18.240Z,19.50
2018-09-09T20:27:46.799Z,19.50
2018-09-09T20:30:15.381Z,19.60
2018-09-09T20:32:44.026Z,19.70
2018-09-09T20:35:12.562Z,19.70
2018-09-09T20:37:41.129Z,19.60
2018-09-09T20:40:09.695Z,19.50
2018-09-09T20:42:38.323Z,19.40
2018-09-09T20:45:07.506Z,19.30
2018-09-09T20:47:36.140Z,19.20
2018-09-09T20:50:04.821Z,19.00
2018-09-09T20:52:33.449Z,18.90
2018-09-09T20:55:02.035Z,18.80
2018-09-09T20:57:30.594Z,18.70
2018-09-09T20:59:59.317Z,18.60
2018-09-09T21:02:27.936Z,18.50
2018-09-09T21:04:56.536Z,18.40
2018-09-09T21:07:25.075Z,18.40
2018-09-09T21:09:53.639Z,18.40
2018-09-09T21:12:22.233Z,18.30
2018-09-09T21:14:50.834Z,18.30
2018-09-09T21:17:19.455Z,18.30
2018-09-09T21:19:48.043Z,18.30
2018-09-09T21:22:16.628Z,18.30
2018-09-09T21:24:45.273Z,18.30
2018-09-09T21:27:13.816Z,18.20
2018-09-09T21:29:42.469Z,18.20
2018-09-09T21:32:11.042Z,18.10
2018-09-09T21:34:39.633Z,18.00
2018-09-09T21:37:08.246Z,18.10
2018-09-09T21:39:36.796Z,18.20
2018-09-09T21:42:05.420Z,18.20
2018-09-09T21:44:33.965Z,18.20
2018-09-09T21:47:02.490Z,18.30
2018-09-09T21:49:31.025Z,18.30
2018-09-09T21:51:59.552Z,18.30
2018-09-09T21:54:28.138Z,18.10
2018-09-09T21:56:56.678Z,18.00
2018-09-09T21:59:25.226Z,17.90
2018-09-09T22:01:59.079Z,17.90
2018-09-09T22:04:27.629Z,17.90
2018-09-09T22:06:56.191Z,17.90
2018-09-09T22:09:24.743Z,17.90
2018-09-09T22:11:53.312Z,17.90
2018-09-09T22:14:21.896Z,17.90
2018-09-09T22:16:50.480Z,17.80
2018-09-09T22:19:18.997Z,17.80
2018-09-09T22:21:48.685Z,17.80
2018-09-09T22:24:18.630Z,17.70
2018-09-09T22:26:47.130Z,17.70
2018-09-09T22:29:15.660Z,17.60
2018-09-09T22:31:44.239Z,17.60
2018-09-09T22:34:12.805Z,17.60
2018-09-09T22:36:41.521Z,17.50
2018-09-09T22:39:11.038Z,17.50
2018-09-09T22:41:40.027Z,17.50
2018-09-09T22:44:10.781Z,17.50
2018-09-09T22:46:39.481Z,17.40
2018-09-09T22:49:08.097Z,17.30
2018-09-09T22:51:36.616Z,17.30
2018-09-09T22:54:05.462Z,17.30
2018-09-09T22:56:34.175Z,17.30
2018-09-09T22:59:02.715Z,17.20
2018-09-09T23:01:31.288Z,17.20
2018-09-09T23:03:59.869Z,17.30
2018-09-09T23:06:28.401Z,17.30
2018-09-09T23:08:56.943Z,17.40
2018-09-09T23:11:25.455Z,17.50
2018-09-09T23:13:54.003Z,17.60
2018-09-09T23:16:22.525Z,17.60
2018-09-09T23:18:51.087Z,17.60
2018-09-09T23:21:19.604Z,17.50
2018-09-09T23:23:48.141Z,17.50
2018-09-09T23:26:16.662Z,17.60
2018-09-09T23:28:45.259Z,17.50
2018-09-09T23:31:13.763Z,17.40
2018-09-09T23:33:42.281Z,17.30
2018-09-09T23:36:10.804Z,17.20
2018-09-09T23:38:39.354Z,17.20
2018-09-09T23:41:07.954Z,17.20
2018-09-09T23:43:36.487Z,17.20
2018-09-09T23:46:05.048Z,17.10
2018-09-09T23:48:33.529Z,17.10
2018-09-09T23:51:02.050Z,17.10
2018-09-09T23:53:30.656Z,17.10
2018-09-09T23:55:59.166Z,17.10
2018-09-09T23:58:27.690Z,17.00
